createdAt,value
2019-05-14T00:03:02.456Z,7.10
2019-05-14T00:08:07.644Z,7.10
2019-05-14T00:13:13.027Z,7.00
2019-05-14T00:18:18.366Z,7.00
2019-05-14T00:23:23.306Z,6.90
2019-05-14T00:28:28.668Z,6.90
2019-05-14T00:33:33.810Z,6.90
2019-05-14T00:38:39.081Z,6.90
2019-05-14T00:43:44.028Z,6.80
2019-05-14T00:48:51.259Z,6.70
2019-05-14T00:53:56.096Z,6.60
2019-05-14T00:59:01.462Z,6.50
2019-05-14T01:04:07.027Z,6.30
2019-05-14T01:09:12.431Z,6.20
2019-05-14T01:14:17.643Z,6.10
2019-05-14T01:19:22.988Z,5.90
2019-05-14T01:24:28.340Z,5.80
2019-05-14T01:29:33.657Z,5.70
2019-05-14T01:34:38.576Z,5.60
2019-05-14T01:39:44.548Z,5.50
2019-05-14T01:44:51.855Z,5.40
2019-05-14T01:49:58.025Z,5.30
2019-05-14T01:55:04.785Z,5.20
2019-05-14T02:00:11.594Z,5.20
2019-05-14T02:05:16.961Z,5.20
2019-05-14T02:10:22.853Z,5.20
2019-05-14T02:15:37.195Z,5.20
2019-05-14T02:20:35.084Z,5.30
2019-05-14T02:25:41.299Z,5.40
2019-05-14T02:31:09.149Z,5.40
2019-05-14T02:36:13.097Z,5.50
2019-05-14T02:41:19.667Z,5.50
2019-05-14T02:46:25.431Z,5.60
2019-05-14T02:51:30.875Z,5.60
2019-05-14T02:56:36.146Z,5.60
2019-05-14T03:01:41.377Z,5.70
2019-05-14T03:07:05.827Z,5.70
2019-05-14T03:12:11.093Z,5.80
2019-05-14T03:17:19.593Z,5.80
2019-05-14T03:22:28.060Z,5.90
2019-05-14T03:27:30.712Z,5.90
2019-05-14T03:32:41.655Z,5.90
2019-05-14T03:37:43.096Z,5.90
2019-05-14T03:42:49.192Z,6.00
2019-05-14T03:47:58.709Z,6.00
2019-05-14T03:53:02.424Z,6.00
2019-05-14T03:58:09.947Z,6.00
2019-05-14T04:03:14.724Z,6.00
2019-05-14T04:08:21.401Z,6.00
2019-05-14T04:13:30.304Z,6.00
2019-05-14T04:18:40.117Z,6.00
2019-05-14T04:24:10.457Z,6.00
2019-05-14T04:29:19.722Z,6.10
2019-05-14T04:34:25.587Z,6.20
2019-05-14T04:39:50.491Z,6.30
2019-05-14T04:45:10.919Z,6.40
2019-05-14T04:50:15.510Z,6.40
2019-05-14T04:55:20.617Z,6.50
2019-05-14T05:00:25.549Z,6.60
2019-05-14T05:05:30.583Z,6.60
2019-05-14T05:10:35.849Z,6.60
2019-05-14T05:15:41.085Z,6.70
2019-05-14T05:20:46.202Z,6.80
2019-05-14T05:25:51.115Z,6.90
2019-05-14T05:30:58.460Z,7.00
2019-05-14T05:36:02.823Z,7.10
2019-05-14T05:41:28.183Z,7.30
2019-05-14T05:46:33.687Z,7.30
2019-05-14T05:51:39.373Z,7.40
2019-05-14T05:56:44.424Z,7.50
2019-05-14T06:01:50.390Z,7.60
2019-05-14T06:06:58.537Z,7.80
2019-05-14T06:12:02.500Z,7.90
2019-05-14T06:17:08.603Z,8.00
2019-05-14T06:22:14.260Z,8.20
2019-05-14T06:27:19.139Z,8.10
2019-05-14T06:32:24.064Z,8.20
2019-05-14T06:37:30.149Z,8.20
2019-05-14T06:42:35.446Z,8.20
2019-05-14T06:47:40.967Z,8.10
2019-05-14T06:52:46.132Z,8.10
2019-05-14T06:57:51.247Z,8.20
2019-05-14T07:02:58.287Z,8.30
2019-05-14T07:08:03.242Z,8.60
2019-05-14T07:13:20.713Z,8.70
2019-05-14T07:18:28.155Z,9.00
2019-05-14T07:23:32.849Z,9.30
2019-05-14T07:28:42.114Z,9.50
2019-05-14T07:33:44.874Z,9.60
2019-05-14T07:38:50.047Z,9.60
2019-05-14T07:43:54.936Z,9.80
2019-05-14T07:49:07.572Z,9.80
2019-05-14T07:54:08.314Z,9.80
2019-05-14T07:59:13.799Z,9.70
2019-05-14T08:04:20.027Z,9.90
2019-05-14T08:09:28.027Z,10.20
2019-05-14T08:14:41.865Z,10.20
2019-05-14T08:19:39.284Z,10.40
2019-05-14T08:24:44.447Z,10.50
2019-05-14T08:29:49.557Z,10.70
2019-05-14T08:34:54.708Z,11.10
2019-05-14T08:39:59.614Z,11.30
2019-05-14T08:45:24.000Z,11.00
2019-05-14T08:50:29.071Z,10.80
2019-05-14T08:55:34.243Z,10.70
2019-05-14T09:00:39.172Z,10.70
2019-05-14T09:05:44.053Z,10.70
2019-05-14T09:10:49.875Z,10.50
2019-05-14T09:15:55.202Z,10.50
2019-05-14T09:21:00.104Z,10.50
2019-05-14T09:26:05.337Z,10.60
2019-05-14T09:31:10.264Z,10.50
2019-05-14T09:36:22.616Z,10.60
2019-05-14T09:41:21.855Z,10.60
2019-05-14T09:46:28.951Z,10.70
2019-05-14T09:51:53.095Z,10.90
2019-05-14T09:56:59.198Z,11.00
2019-05-14T10:02:04.813Z,10.90
2019-05-14T10:07:10.111Z,11.00
2019-05-14T10:12:15.223Z,11.00
2019-05-14T10:17:20.427Z,10.90
2019-05-14T10:22:25.337Z,11.00
2019-05-14T10:27:30.200Z,11.00
2019-05-14T10:32:35.354Z,10.90
2019-05-14T10:37:40.485Z,10.90
2019-05-14T10:42:45.669Z,10.90
2019-05-14T10:47:50.810Z,11.00
2019-05-14T10:52:55.875Z,11.40
2019-05-14T10:58:00.990Z,11.50
2019-05-14T11:03:06.208Z,11.50
2019-05-14T11:08:11.886Z,11.50
2019-05-14T11:13:18.995Z,11.40
2019-05-14T11:18:24.013Z,11.50
2019-05-14T11:23:49.210Z,11.60
2019-05-14T11:28:54.544Z,11.40
2019-05-14T11:34:19.453Z,11.40
2019-05-14T11:39:24.592Z,11.60
2019-05-14T11:44:29.726Z,11.80
2019-05-14T11:49:34.840Z,12.10
2019-05-14T11:54:40.876Z,12.30
2019-05-14T11:59:46.611Z,12.50
2019-05-14T12:04:51.519Z,12.50
2019-05-14T12:09:56.689Z,12.50
2019-05-14T12:15:01.718Z,12.50
2019-05-14T12:20:08.036Z,12.70
2019-05-14T12:25:13.245Z,12.90
2019-05-14T12:30:19.659Z,13.30
2019-05-14T12:35:24.784Z,13.70
2019-05-14T12:40:29.885Z,13.70
2019-05-14T12:45:34.849Z,13.30
2019-05-14T12:50:39.969Z,13.10
2019-05-14T12:56:04.423Z,12.80
2019-05-14T13:01:09.628Z,12.40
2019-05-14T13:06:14.815Z,12.40
2019-05-14T13:11:20.163Z,12.40
2019-05-14T13:16:25.429Z,12.40
2019-05-14T13:21:30.660Z,12.70
2019-05-14T13:26:35.792Z,12.80
2019-05-14T13:32:00.227Z,12.70
2019-05-14T13:37:05.497Z,12.50
2019-05-14T13:42:11.964Z,12.40
2019-05-14T13:47:18.258Z,12.10
2019-05-14T13:52:23.704Z,11.90
2019-05-14T13:57:29.166Z,11.90
2019-05-14T14:02:34.546Z,11.70
2019-05-14T14:07:43.981Z,11.80
2019-05-14T14:12:49.311Z,11.80
2019-05-14T14:17:53.057Z,11.70
2019-05-14T14:22:58.686Z,11.60
2019-05-14T14:28:04.720Z,11.60
2019-05-14T14:33:09.621Z,11.60
2019-05-14T14:38:15.017Z,11.60
2019-05-14T14:43:19.942Z,11.50
2019-05-14T14:48:39.903Z,11.50
2019-05-14T14:53:57.717Z,11.40
2019-05-14T14:58:52.012Z,11.30
2019-05-14T15:03:59.436Z,11.30
2019-05-14T15:09:04.029Z,11.20
2019-05-14T15:14:09.478Z,11.20
2019-05-14T15:19:15.098Z,11.30
2019-05-14T15:24:20.082Z,11.30
2019-05-14T15:29:25.095Z,11.30
2019-05-14T15:34:30.182Z,11.20
2019-05-14T15:39:35.362Z,11.20
2019-05-14T15:44:48.956Z,11.10
2019-05-14T15:50:09.271Z,10.90
2019-05-14T15:55:13.980Z,10.80
2019-05-14T16:00:19.871Z,10.70
2019-05-14T16:05:24.939Z,10.80
2019-05-14T16:10:30.879Z,10.80
2019-05-14T16:15:38.976Z,10.70
2019-05-14T16:20:44.263Z,10.60
2019-05-14T16:25:49.224Z,10.50
2019-05-14T16:30:54.138Z,10.40
2019-05-14T16:35:59.279Z,10.40
2019-05-14T16:41:04.393Z,10.30
2019-05-14T16:46:09.921Z,10.30
2019-05-14T16:51:15.493Z,10.20
2019-05-14T16:56:20.609Z,10.20
2019-05-14T17:01:25.579Z,10.10
2019-05-14T17:06:34.543Z,10.00
2019-05-14T17:11:39.075Z,9.90
2019-05-14T17:16:44.748Z,9.80
2019-05-14T17:21:50.268Z,9.80
2019-05-14T17:26:58.146Z,9.70
2019-05-14T17:32:03.107Z,9.70
2019-05-14T17:37:09.144Z,9.60
2019-05-14T17:42:33.591Z,9.60
2019-05-14T17:47:39.442Z,9.50
2019-05-14T17:52:45.803Z,9.50
2019-05-14T17:58:13.109Z,9.40
2019-05-14T18:03:19.382Z,9.40
2019-05-14T18:08:24.902Z,9.30
2019-05-14T18:13:30.854Z,9.20
2019-05-14T18:18:36.677Z,9.20
2019-05-14T18:23:42.476Z,9.20
2019-05-14T18:28:47.612Z,9.10
2019-05-14T18:33:53.220Z,9.00
2019-05-14T18:38:58.830Z,9.00
2019-05-14T18:44:04.965Z,9.00
2019-05-14T18:49:10.267Z,9.00
2019-05-14T18:54:15.518Z,8.90
2019-05-14T18:59:21.268Z,8.90
2019-05-14T19:04:27.986Z,8.90
2019-05-14T19:09:34.554Z,8.80
2019-05-14T19:14:42.705Z,8.70
2019-05-14T19:19:48.287Z,8.70
2019-05-14T19:24:53.795Z,8.70
2019-05-14T19:30:00.197Z,8.70
2019-05-14T19:35:08.732Z,8.60
2019-05-14T19:40:15.401Z,8.50
2019-05-14T19:45:20.762Z,8.50
2019-05-14T19:50:26.186Z,8.50
2019-05-14T19:55:31.535Z,8.50
2019-05-14T20:00:38.245Z,8.50
2019-05-14T20:05:43.745Z,8.40
2019-05-14T20:10:49.220Z,8.30
2019-05-14T20:15:54.139Z,8.30
2019-05-14T20:20:59.375Z,8.20
2019-05-14T20:26:04.648Z,8.20
2019-05-14T20:31:10.803Z,8.20
2019-05-14T20:36:16.065Z,8.20
2019-05-14T20:41:21.285Z,8.20
2019-05-14T20:46:28.384Z,8.10
2019-05-14T20:51:52.445Z,8.10
2019-05-14T20:56:58.613Z,8.10
2019-05-14T21:02:04.052Z,8.00
2019-05-14T21:07:09.336Z,8.00
2019-05-14T21:12:14.346Z,8.00
2019-05-14T21:17:39.235Z,7.90
2019-05-14T21:22:44.722Z,7.90
2019-05-14T21:28:09.423Z,7.90
2019-05-14T21:33:28.456Z,7.90
2019-05-14T21:38:33.904Z,7.90
2019-05-14T21:43:39.073Z,7.80
2019-05-14T21:48:44.426Z,7.80
2019-05-14T21:54:09.530Z,7.80
2019-05-14T21:59:15.218Z,7.70
2019-05-14T22:04:20.345Z,7.80
2019-05-14T22:09:25.592Z,7.80
2019-05-14T22:14:31.171Z,7.70
2019-05-14T22:19:38.278Z,7.70
2019-05-14T22:24:43.159Z,7.70
2019-05-14T22:29:48.395Z,7.60
2019-05-14T22:34:53.552Z,7.50
2019-05-14T22:39:59.095Z,7.50
2019-05-14T22:45:09.138Z,7.50
2019-05-14T22:50:32.563Z,7.50
2019-05-14T22:55:38.238Z,7.50
2019-05-14T23:00:46.698Z,7.50
2019-05-14T23:05:50.212Z,7.40
2019-05-14T23:10:55.559Z,7.40
2019-05-14T23:16:00.812Z,7.30
2019-05-14T23:21:08.602Z,7.30
2019-05-14T23:26:12.780Z,7.20
2019-05-14T23:31:18.107Z,7.20
2019-05-14T23:36:23.270Z,7.10
2019-05-14T23:41:28.754Z,7.10
2019-05-14T23:46:34.203Z,7.00
2019-05-14T23:51:39.365Z,6.90
2019-05-14T23:56:44.428Z,6.90
